Iroquois Falls, Canada
Current Conditions -  °F | °C
As of 7:00 AM on Saturday 25 Oct 2014 (Local Time) from CYTS Reporting Station
Light Rain Light Rain  
Wind Chill: 40°   Ceiling: 1400
Heat Index: 45°   Visibility: 6mi
Dew Point: 45°   Wind: 8mph
Humidity: 100%   Direction: 180°S
Pressure: 29.44"   Gusts: NA
Location:  48.77°N, 80.67°W
Report Text: CYTS 251100Z 18007KT 6SM -RA SCT008 OVC014 07/07 A2944 RMK SF3SC5 SLP978
Loading
Personal Weather Stations






























Interactive Weather Map
Tropical Storm Tracking
New forecast layout! Learn more

10-Day Weather Forecast

Advertisements
Track Severe Weather on mobile